Winfield, Alabama
Current Conditions -  °F | °C
As of 11:56 PM on Sunday 21 Dec 2014 (Local Time) from K1M4 Reporting Station
Overcast Overcast  
Wind Chill: 47°   Ceiling: 500
Heat Index: 47°   Visibility: 7mi
Dew Point: 47°   Wind: 0mph
Humidity: 100%   Direction: NA
Pressure: 30.01"   Gusts: NA
Location:  33.93°N, 87.82°W
Report Text: K1M4 220556Z AUTO 00000KT 7SM OVC005 08/08 A3001 RMK AO2 56014 T00830083 10088 20066 SLP175 $
Loading
Personal Weather Stations






























Interactive Weather Map New forecast layout! Learn more

10-Day Weather Forecast

Advertisements
Track Severe Weather on mobile